createdAt,value
2018-11-05T00:01:38.895Z,59.93
2018-11-05T00:04:07.183Z,57.97
2018-11-05T00:06:35.484Z,58.90
2018-11-05T00:09:04.948Z,59.67
2018-11-05T00:11:33.276Z,58.83
2018-11-05T00:14:01.591Z,59.23
2018-11-05T00:16:29.896Z,58.23
2018-11-05T00:18:59.333Z,58.23
2018-11-05T00:21:27.635Z,57.57
2018-11-05T00:23:55.942Z,58.83
2018-11-05T00:26:24.259Z,61.10
2018-11-05T00:28:52.601Z,58.03
2018-11-05T00:31:20.896Z,58.40
2018-11-05T00:33:49.199Z,59.90
2018-11-05T00:36:17.532Z,55.53
2018-11-05T00:38:45.855Z,55.77
2018-11-05T00:41:14.136Z,57.33
2018-11-05T00:43:42.463Z,54.23
2018-11-05T00:46:10.776Z,58.10
2018-11-05T00:48:39.088Z,57.23
2018-11-05T00:51:07.396Z,58.40
2018-11-05T00:53:35.701Z,57.90
2018-11-05T00:56:04.018Z,57.77
2018-11-05T00:58:32.405Z,56.33
2018-11-05T01:01:00.706Z,56.40
2018-11-05T01:03:29.041Z,55.63
2018-11-05T01:05:57.377Z,55.50
2018-11-05T01:08:25.708Z,57.27
2018-11-05T01:10:54.140Z,54.87
2018-11-05T01:13:22.433Z,57.97
2018-11-05T01:15:50.752Z,56.40
2018-11-05T01:18:19.647Z,56.03
2018-11-05T01:20:47.944Z,58.03
2018-11-05T01:23:16.260Z,54.93
2018-11-05T01:25:44.593Z,55.77
2018-11-05T01:28:12.912Z,56.53
2018-11-05T01:30:41.208Z,57.77
2018-11-05T01:33:09.511Z,57.47
2018-11-05T01:35:37.816Z,57.20
2018-11-05T01:38:06.143Z,55.30
2018-11-05T01:40:34.444Z,56.20
2018-11-05T01:43:02.734Z,56.67
2018-11-05T01:45:31.041Z,56.27
2018-11-05T01:47:59.344Z,54.27
2018-11-05T01:50:27.748Z,56.13
2018-11-05T01:52:57.136Z,56.63
2018-11-05T01:55:25.479Z,54.83
2018-11-05T01:57:53.796Z,58.03
2018-11-05T02:00:22.129Z,56.03
2018-11-05T02:02:50.447Z,54.33
2018-11-05T02:05:18.731Z,55.17
2018-11-05T02:07:47.191Z,56.67
2018-11-05T02:10:16.703Z,55.67
2018-11-05T02:12:44.977Z,54.53
2018-11-05T02:15:13.483Z,52.90
2018-11-05T02:17:43.081Z,54.77
2018-11-05T02:20:17.450Z,59.77
2018-11-05T02:22:45.853Z,53.93
2018-11-05T02:25:14.556Z,53.57
2018-11-05T02:27:42.984Z,57.07
2018-11-05T02:30:13.694Z,53.80
2018-11-05T02:32:43.071Z,54.23
2018-11-05T02:35:12.536Z,54.87
2018-11-05T02:37:41.574Z,54.80
2018-11-05T02:40:12.733Z,56.43
2018-11-05T02:42:41.815Z,54.83
2018-11-05T02:45:11.612Z,55.57
2018-11-05T02:47:40.141Z,54.60
2018-11-05T02:50:09.765Z,54.90
2018-11-05T02:52:38.812Z,55.37
2018-11-05T02:55:07.267Z,55.93
2018-11-05T02:57:35.696Z,54.47
2018-11-05T03:00:05.749Z,56.30
2018-11-05T03:02:35.148Z,54.23
2018-11-05T03:05:03.609Z,54.93
2018-11-05T03:07:31.918Z,56.17
2018-11-05T03:10:00.228Z,57.00
2018-11-05T03:12:28.564Z,54.27
2018-11-05T03:14:56.884Z,54.33
2018-11-05T03:17:25.172Z,54.77
2018-11-05T03:19:53.463Z,56.47
2018-11-05T03:22:21.759Z,53.63
2018-11-05T03:24:50.060Z,52.87
2018-11-05T03:27:18.488Z,54.77
2018-11-05T03:29:46.767Z,53.53
2018-11-05T03:32:15.064Z,52.90
2018-11-05T03:34:43.376Z,54.40
2018-11-05T03:37:11.687Z,54.73
2018-11-05T03:39:43.980Z,53.73
2018-11-05T03:42:12.259Z,53.90
2018-11-05T03:44:40.552Z,55.53
2018-11-05T03:47:08.860Z,52.87
2018-11-05T03:49:37.155Z,56.07
2018-11-05T03:52:05.589Z,54.33
2018-11-05T03:54:33.880Z,56.70
2018-11-05T03:57:02.167Z,55.70
2018-11-05T03:59:30.429Z,55.60
2018-11-05T04:01:58.717Z,56.23
2018-11-05T04:04:26.992Z,54.73
2018-11-05T04:06:55.295Z,56.13
2018-11-05T04:09:23.579Z,55.10
2018-11-05T04:11:51.899Z,55.50
2018-11-05T04:14:20.204Z,54.63
2018-11-05T04:16:48.521Z,56.13
2018-11-05T04:19:16.833Z,54.50
2018-11-05T04:21:45.636Z,55.60
2018-11-05T04:24:15.002Z,55.87
2018-11-05T04:26:44.401Z,54.67
2018-11-05T04:29:12.698Z,54.40
2018-11-05T04:31:41.392Z,57.80
2018-11-05T04:34:10.780Z,54.47
2018-11-05T04:36:39.051Z,50.30
2018-11-05T04:39:11.739Z,54.37
2018-11-05T04:41:40.100Z,53.13
2018-11-05T04:44:08.708Z,55.47
2018-11-05T04:46:37.109Z,54.97
2018-11-05T04:49:05.503Z,55.97
2018-11-05T04:51:33.788Z,58.73
2018-11-05T04:54:02.132Z,59.13
2018-11-05T04:56:30.496Z,54.97
2018-11-05T04:58:58.779Z,56.20
2018-11-05T05:01:27.170Z,58.83
2018-11-05T05:03:55.484Z,58.80
2018-11-05T05:06:23.827Z,56.53
2018-11-05T05:08:52.111Z,57.27
2018-11-05T05:11:21.492Z,58.53
2018-11-05T05:13:49.810Z,56.33
2018-11-05T05:16:18.117Z,58.77
2018-11-05T05:18:46.395Z,59.97
2018-11-05T05:21:14.651Z,59.70
2018-11-05T05:23:42.951Z,62.23
2018-11-05T05:26:11.250Z,60.27
2018-11-05T05:28:39.521Z,60.20
2018-11-05T05:31:07.879Z,61.13
2018-11-05T05:33:36.359Z,61.83
2018-11-05T05:36:05.002Z,60.97
2018-11-05T05:38:33.304Z,61.13
2018-11-05T05:41:01.619Z,61.53
2018-11-05T05:43:29.983Z,60.73
2018-11-05T05:45:58.271Z,61.70
2018-11-05T05:48:28.738Z,59.10
2018-11-05T05:50:57.100Z,59.87
2018-11-05T05:53:25.367Z,61.57
2018-11-05T05:55:53.673Z,60.47
2018-11-05T05:58:21.951Z,59.50
2018-11-05T06:00:50.315Z,60.40
2018-11-05T06:03:18.789Z,61.70
2018-11-05T06:05:47.227Z,60.27
2018-11-05T06:08:15.471Z,61.40
2018-11-05T06:10:47.743Z,60.23
2018-11-05T06:13:16.024Z,58.50
2018-11-05T06:15:47.431Z,58.60
2018-11-05T06:18:15.712Z,60.77
2018-11-05T06:20:44.117Z,60.87
2018-11-05T06:23:12.440Z,59.23
2018-11-05T06:25:40.867Z,56.17
2018-11-05T06:28:09.151Z,59.63
2018-11-05T06:30:38.432Z,59.80
2018-11-05T06:33:06.759Z,60.43
2018-11-05T06:35:35.068Z,60.77
2018-11-05T06:38:03.364Z,58.50
2018-11-05T06:40:31.671Z,58.20
2018-11-05T06:42:59.952Z,59.50
2018-11-05T06:45:28.332Z,59.80
2018-11-05T06:47:56.536Z,59.00
2018-11-05T06:50:25.746Z,57.43
2018-11-05T06:52:54.126Z,57.70
2018-11-05T06:55:22.368Z,57.43
2018-11-05T06:57:50.996Z,58.57
2018-11-05T07:00:21.600Z,57.80
2018-11-05T07:02:49.966Z,59.47
2018-11-05T07:05:18.581Z,63.07
2018-11-05T07:07:47.232Z,58.47
2018-11-05T07:10:16.329Z,55.37
2018-11-05T07:12:45.027Z,56.43
2018-11-05T07:15:14.786Z,56.37
2018-11-05T07:17:49.831Z,55.20
2018-11-05T07:20:19.382Z,57.33
2018-11-05T07:22:48.527Z,55.27
2018-11-05T07:25:17.019Z,54.37
2018-11-05T07:27:45.662Z,54.80
2018-11-05T07:30:20.124Z,55.20
2018-11-05T07:32:49.246Z,53.00
2018-11-05T07:35:17.571Z,53.73
2018-11-05T07:37:45.890Z,53.47
2018-11-05T07:40:15.399Z,53.30
2018-11-05T07:42:43.948Z,52.60
2018-11-05T07:45:23.622Z,53.53
2018-11-05T07:47:51.983Z,51.43
2018-11-05T07:50:21.264Z,52.10
2018-11-05T07:52:49.821Z,53.33
2018-11-05T07:55:18.889Z,51.67
2018-11-05T07:57:48.388Z,57.33
2018-11-05T08:00:22.065Z,53.97
2018-11-05T08:02:51.935Z,52.77
2018-11-05T08:05:21.165Z,53.50
2018-11-05T08:07:49.758Z,51.70
2018-11-05T08:10:18.051Z,50.43
2018-11-05T08:12:46.467Z,50.37
2018-11-05T08:15:18.891Z,49.23
2018-11-05T08:17:48.259Z,49.07
2018-11-05T08:20:16.561Z,48.73
2018-11-05T08:22:44.872Z,47.83
2018-11-05T08:25:13.991Z,48.30
2018-11-05T08:27:42.307Z,47.50
2018-11-05T08:30:17.799Z,50.03
2018-11-05T08:32:46.127Z,46.80
2018-11-05T08:35:14.804Z,46.13
2018-11-05T08:37:43.964Z,45.20
2018-11-05T08:40:15.435Z,46.23
2018-11-05T08:42:44.282Z,45.40
2018-11-05T08:45:13.603Z,45.77
2018-11-05T08:47:42.112Z,46.47
2018-11-05T08:50:12.472Z,45.03
2018-11-05T08:52:40.780Z,46.60
2018-11-05T08:55:11.418Z,44.53
2018-11-05T08:57:40.239Z,44.63
2018-11-05T09:00:20.227Z,46.67
2018-11-05T09:02:48.910Z,45.27
2018-11-05T09:05:17.284Z,45.77
2018-11-05T09:07:46.311Z,42.67
2018-11-05T09:10:14.765Z,44.37
2018-11-05T09:12:43.328Z,43.57
2018-11-05T09:15:13.092Z,44.07
2018-11-05T09:17:42.247Z,41.70
2018-11-05T09:20:11.839Z,43.30
2018-11-05T09:22:40.140Z,43.43
2018-11-05T09:25:09.628Z,42.33
2018-11-05T09:27:37.979Z,43.30
2018-11-05T09:30:08.642Z,42.33
2018-11-05T09:32:36.917Z,42.03
2018-11-05T09:35:06.048Z,43.47
2018-11-05T09:37:34.347Z,42.97
2018-11-05T09:40:02.698Z,41.20
2018-11-05T09:42:31.055Z,42.33
2018-11-05T09:44:59.338Z,41.57
2018-11-05T09:47:27.611Z,41.50
2018-11-05T09:49:55.946Z,42.20
2018-11-05T09:52:24.220Z,43.20
2018-11-05T09:54:52.539Z,41.67
2018-11-05T09:57:20.899Z,40.63
2018-11-05T09:59:49.123Z,42.07
2018-11-05T10:02:17.436Z,40.83
2018-11-05T10:04:46.115Z,40.57
2018-11-05T10:07:14.058Z,42.00
2018-11-05T10:09:42.352Z,39.93
2018-11-05T10:12:10.704Z,40.97
2018-11-05T10:14:38.995Z,41.70
2018-11-05T10:17:07.599Z,40.90
2018-11-05T10:19:35.919Z,38.37
2018-11-05T10:22:04.232Z,41.37
2018-11-05T10:24:32.642Z,40.77
2018-11-05T10:27:00.852Z,38.67
2018-11-05T10:29:29.139Z,41.70
2018-11-05T10:31:57.459Z,40.93
2018-11-05T10:34:25.727Z,39.37
2018-11-05T10:36:54.062Z,39.77
2018-11-05T10:39:22.340Z,40.07
2018-11-05T10:41:50.663Z,40.07
2018-11-05T10:44:18.996Z,40.70
2018-11-05T10:46:47.239Z,40.10
2018-11-05T10:49:15.583Z,38.43
2018-11-05T10:51:44.230Z,37.60
2018-11-05T10:54:12.536Z,39.60
2018-11-05T10:56:40.872Z,40.03
2018-11-05T10:59:09.234Z,40.20
2018-11-05T11:01:42.836Z,39.10
2018-11-05T11:04:16.528Z,40.23
2018-11-05T11:06:44.835Z,40.43
2018-11-05T11:09:13.151Z,40.30
2018-11-05T11:11:41.540Z,39.47
2018-11-05T11:14:09.845Z,39.80
2018-11-05T11:16:38.227Z,40.97
2018-11-05T11:19:06.591Z,41.67
2018-11-05T11:21:34.891Z,41.47
2018-11-05T11:24:03.175Z,42.57
2018-11-05T11:26:31.485Z,41.27
2018-11-05T11:28:59.897Z,40.40
2018-11-05T11:31:28.128Z,42.67
2018-11-05T11:33:56.451Z,40.97
2018-11-05T11:36:24.832Z,40.13
2018-11-05T11:38:53.048Z,43.37
2018-11-05T11:41:21.371Z,40.70
2018-11-05T11:43:49.663Z,41.00
2018-11-05T11:46:18.071Z,42.40
2018-11-05T11:48:46.408Z,42.10
2018-11-05T11:51:14.684Z,42.33
2018-11-05T11:53:43.008Z,42.20
2018-11-05T11:56:11.382Z,40.90
2018-11-05T11:58:39.856Z,44.87
2018-11-05T12:01:08.164Z,42.13
2018-11-05T12:03:36.489Z,43.00
2018-11-05T12:06:05.241Z,43.73
2018-11-05T12:08:33.508Z,43.77
2018-11-05T12:11:01.803Z,43.70
2018-11-05T12:13:30.135Z,41.57
2018-11-05T12:15:58.435Z,45.00
2018-11-05T12:18:26.784Z,44.80
2018-11-05T12:20:55.079Z,44.00
2018-11-05T12:23:23.444Z,46.77
2018-11-05T12:25:51.935Z,45.17
2018-11-05T12:28:20.283Z,45.53
2018-11-05T12:30:48.627Z,44.37
2018-11-05T12:33:16.984Z,45.00
2018-11-05T12:35:45.264Z,45.60
2018-11-05T12:38:13.612Z,45.07
2018-11-05T12:40:41.959Z,45.63
2018-11-05T12:43:10.396Z,45.53
2018-11-05T12:45:40.877Z,46.43
2018-11-05T12:48:10.151Z,45.17
2018-11-05T12:50:38.513Z,45.07
2018-11-05T12:53:09.071Z,48.50
2018-11-05T12:55:38.895Z,47.23
2018-11-05T12:58:07.216Z,48.90
2018-11-05T13:00:39.321Z,49.17
2018-11-05T13:03:13.155Z,51.53
2018-11-05T13:05:42.617Z,48.97
2018-11-05T13:08:11.952Z,49.73
2018-11-05T13:10:42.068Z,47.77
2018-11-05T13:13:10.412Z,48.40
2018-11-05T13:15:41.618Z,47.63
2018-11-05T13:18:12.936Z,48.07
2018-11-05T13:20:42.572Z,48.13
2018-11-05T13:23:10.948Z,50.67
2018-11-05T13:25:39.910Z,48.70
2018-11-05T13:28:08.340Z,53.63
2018-11-05T13:30:36.623Z,60.23
2018-11-05T13:33:05.035Z,54.63
2018-11-05T13:35:33.349Z,52.43
2018-11-05T13:38:02.329Z,55.70
2018-11-05T13:40:30.157Z,55.37
2018-11-05T13:42:58.454Z,55.17
2018-11-05T13:45:27.015Z,51.87
2018-11-05T13:47:55.758Z,50.97
2018-11-05T13:50:23.647Z,48.87
2018-11-05T13:52:51.739Z,49.93
2018-11-05T13:55:20.061Z,50.20
2018-11-05T13:57:48.833Z,50.73
2018-11-05T14:00:18.396Z,53.47
2018-11-05T14:02:46.889Z,50.67
2018-11-05T14:05:15.271Z,52.00
2018-11-05T14:07:43.600Z,51.73
2018-11-05T14:10:15.491Z,51.17
2018-11-05T14:12:44.929Z,52.50
2018-11-05T14:15:13.149Z,53.37
2018-11-05T14:17:42.257Z,51.67
2018-11-05T14:20:11.689Z,52.90
2018-11-05T14:22:40.051Z,52.37
2018-11-05T14:25:10.472Z,54.07
2018-11-05T14:27:39.060Z,52.30
2018-11-05T14:30:08.727Z,53.83
2018-11-05T14:32:36.924Z,52.67
2018-11-05T14:35:05.284Z,55.10
2018-11-05T14:37:33.580Z,53.37
2018-11-05T14:40:01.912Z,54.50
2018-11-05T14:42:30.195Z,54.37
2018-11-05T14:44:58.504Z,52.70
2018-11-05T14:47:26.795Z,53.83
2018-11-05T14:49:55.135Z,54.30
2018-11-05T14:52:23.444Z,53.97
2018-11-05T14:54:51.778Z,58.57
2018-11-05T14:57:20.171Z,55.60
2018-11-05T14:59:48.383Z,59.57
2018-11-05T15:02:21.999Z,60.70
2018-11-05T15:04:50.272Z,60.63
2018-11-05T15:07:21.764Z,58.00
2018-11-05T15:09:50.031Z,57.87
2018-11-05T15:12:18.359Z,57.90
2018-11-05T15:14:46.647Z,57.13
2018-11-05T15:17:14.958Z,60.83
2018-11-05T15:19:43.737Z,61.70
2018-11-05T15:22:11.572Z,63.50
2018-11-05T15:24:39.885Z,63.20
2018-11-05T15:27:08.207Z,61.93
2018-11-05T15:29:36.451Z,61.30
2018-11-05T15:32:05.371Z,61.77
2018-11-05T15:34:33.636Z,59.30
2018-11-05T15:37:01.920Z,56.87
2018-11-05T15:39:30.231Z,58.40
2018-11-05T15:41:58.507Z,60.13
2018-11-05T15:44:26.834Z,59.67
2018-11-05T15:46:55.131Z,57.97
2018-11-05T15:49:23.423Z,57.63
2018-11-05T15:51:52.097Z,61.40
2018-11-05T15:54:20.201Z,59.47
2018-11-05T15:56:48.414Z,58.67
2018-11-05T15:59:16.705Z,60.13
2018-11-05T16:01:44.991Z,63.47
2018-11-05T16:04:13.324Z,61.53
2018-11-05T16:06:41.582Z,60.23
2018-11-05T16:09:10.052Z,62.33
2018-11-05T16:11:38.359Z,59.97
2018-11-05T16:14:06.835Z,59.90
2018-11-05T16:16:35.243Z,59.47
2018-11-05T16:19:03.573Z,60.33
2018-11-05T16:21:31.979Z,59.97
2018-11-05T16:24:00.280Z,63.17
2018-11-05T16:26:28.583Z,63.43
2018-11-05T16:28:56.898Z,62.17
2018-11-05T16:31:25.186Z,65.10
2018-11-05T16:33:53.510Z,66.70
2018-11-05T16:36:21.804Z,65.90
2018-11-05T16:38:50.127Z,66.17
2018-11-05T16:41:18.442Z,64.60
2018-11-05T16:43:47.586Z,65.20
2018-11-05T16:46:15.883Z,63.23
2018-11-05T16:48:44.367Z,61.43
2018-11-05T16:51:12.686Z,62.70
2018-11-05T16:53:40.982Z,62.57
2018-11-05T16:56:09.307Z,62.83
2018-11-05T16:58:43.297Z,63.03
2018-11-05T17:01:12.087Z,61.30
2018-11-05T17:03:40.355Z,62.60
2018-11-05T17:06:08.804Z,62.33
2018-11-05T17:08:37.075Z,64.73
2018-11-05T17:11:06.911Z,64.33
2018-11-05T17:13:35.347Z,62.43
2018-11-05T17:16:03.560Z,62.33
2018-11-05T17:18:31.857Z,63.07
2018-11-05T17:21:00.155Z,62.83
2018-11-05T17:23:28.500Z,64.40
2018-11-05T17:25:56.851Z,64.17
2018-11-05T17:28:25.177Z,66.23
2018-11-05T17:30:53.533Z,62.20
2018-11-05T17:33:22.467Z,63.97
2018-11-05T17:35:50.784Z,64.50
2018-11-05T17:38:19.059Z,64.43
2018-11-05T17:40:47.376Z,68.33
2018-11-05T17:43:15.668Z,64.90
2018-11-05T17:45:43.979Z,65.27
2018-11-05T17:48:12.251Z,65.10
2018-11-05T17:50:40.609Z,64.07
2018-11-05T17:53:08.893Z,64.43
2018-11-05T17:55:37.203Z,66.43
2018-11-05T17:58:05.623Z,64.93
2018-11-05T18:00:33.903Z,63.57
2018-11-05T18:03:03.647Z,63.63
2018-11-05T18:05:31.948Z,65.07
2018-11-05T18:08:00.247Z,63.83
2018-11-05T18:10:28.512Z,62.70
2018-11-05T18:12:56.807Z,67.03
2018-11-05T18:15:25.141Z,66.33
2018-11-05T18:17:53.399Z,65.80
2018-11-05T18:20:21.744Z,62.07
2018-11-05T18:22:50.055Z,65.57
2018-11-05T18:25:19.412Z,64.67
2018-11-05T18:27:47.855Z,63.37
2018-11-05T18:30:16.873Z,64.23
2018-11-05T18:32:45.183Z,67.13
2018-11-05T18:35:14.352Z,64.90
2018-11-05T18:37:47.957Z,67.67
2018-11-05T18:40:16.434Z,64.70
2018-11-05T18:42:45.025Z,65.40
2018-11-05T18:45:13.480Z,68.47
2018-11-05T18:47:41.892Z,65.73
2018-11-05T18:50:12.015Z,68.87
2018-11-05T18:52:40.419Z,69.23
2018-11-05T18:55:10.295Z,67.60
2018-11-05T18:57:38.896Z,69.63
2018-11-05T19:00:20.185Z,68.03
2018-11-05T19:02:49.278Z,69.87
2018-11-05T19:05:18.962Z,70.33
2018-11-05T19:07:47.564Z,72.57
2018-11-05T19:10:15.864Z,75.77
2018-11-05T19:12:44.170Z,71.17
2018-11-05T19:15:13.776Z,73.17
2018-11-05T19:17:42.628Z,70.63
2018-11-05T19:20:10.996Z,73.20
2018-11-05T19:22:40.180Z,74.47
2018-11-05T19:25:09.687Z,73.27
2018-11-05T19:27:39.543Z,76.27
2018-11-05T19:30:11.206Z,78.97
2018-11-05T19:32:39.507Z,79.00
2018-11-05T19:35:12.249Z,81.33
2018-11-05T19:37:42.196Z,80.30
2018-11-05T19:40:11.743Z,82.03
2018-11-05T19:42:41.227Z,82.00
2018-11-05T19:45:13.536Z,81.17
2018-11-05T19:47:41.918Z,79.00
2018-11-05T19:50:13.383Z,82.60
2018-11-05T19:52:42.689Z,82.87
2018-11-05T19:55:12.601Z,83.57
2018-11-05T19:57:41.839Z,82.07
2018-11-05T20:00:18.254Z,83.17
2018-11-05T20:02:47.083Z,84.30
2018-11-05T20:05:15.842Z,80.60
2018-11-05T20:07:44.555Z,80.37
2018-11-05T20:10:13.216Z,80.17
2018-11-05T20:12:42.305Z,83.57
2018-11-05T20:15:11.820Z,84.17
2018-11-05T20:17:41.139Z,78.60
2018-11-05T20:20:11.052Z,77.70
2018-11-05T20:22:39.467Z,83.60
2018-11-05T20:25:09.851Z,80.77
2018-11-05T20:27:38.789Z,81.20
2018-11-05T20:30:11.063Z,75.13
2018-11-05T20:32:39.875Z,76.77
2018-11-05T20:35:08.261Z,77.27
2018-11-05T20:37:36.611Z,77.57
2018-11-05T20:40:05.718Z,75.10
2018-11-05T20:42:33.956Z,75.23
2018-11-05T20:45:02.319Z,80.23
2018-11-05T20:47:30.624Z,81.50
2018-11-05T20:49:58.896Z,82.27
2018-11-05T20:52:27.195Z,80.67
2018-11-05T20:54:55.515Z,70.23
2018-11-05T20:57:23.890Z,75.70
2018-11-05T20:59:52.211Z,76.97
2018-11-05T21:02:20.528Z,82.43
2018-11-05T21:04:48.787Z,78.87
2018-11-05T21:07:17.075Z,78.77
2018-11-05T21:09:45.464Z,79.17
2018-11-05T21:12:13.759Z,78.83
2018-11-05T21:14:42.104Z,70.27
2018-11-05T21:17:10.546Z,72.60
2018-11-05T21:19:40.121Z,73.13
2018-11-05T21:22:11.217Z,70.73
2018-11-05T21:24:39.388Z,72.10
2018-11-05T21:27:23.482Z,72.43
2018-11-05T21:29:53.374Z,74.53
2018-11-05T21:32:21.675Z,70.90
2018-11-05T21:34:50.303Z,70.30
2018-11-05T21:37:18.994Z,71.57
2018-11-05T21:39:47.296Z,74.20
2018-11-05T21:42:15.580Z,69.63
2018-11-05T21:44:43.859Z,70.87
2018-11-05T21:47:12.175Z,72.80
2018-11-05T21:49:40.398Z,71.30
2018-11-05T21:52:08.727Z,67.00
2018-11-05T21:54:37.245Z,70.10
2018-11-05T21:57:05.562Z,72.80
2018-11-05T21:59:33.825Z,73.43
2018-11-05T22:02:02.128Z,71.03
2018-11-05T22:04:30.411Z,71.97
2018-11-05T22:06:58.703Z,67.33
2018-11-05T22:09:26.974Z,69.17
2018-11-05T22:11:55.303Z,73.33
2018-11-05T22:14:23.600Z,75.37
2018-11-05T22:16:51.967Z,75.97
2018-11-05T22:19:20.240Z,74.73
2018-11-05T22:21:48.515Z,74.63
2018-11-05T22:24:16.832Z,66.60
2018-11-05T22:26:45.126Z,62.83
2018-11-05T22:29:13.423Z,67.70
2018-11-05T22:31:41.705Z,68.30
2018-11-05T22:34:10.074Z,72.20
2018-11-05T22:36:38.368Z,74.67
2018-11-05T22:39:07.795Z,75.90
2018-11-05T22:41:36.171Z,73.03
2018-11-05T22:44:04.453Z,77.33
2018-11-05T22:46:32.754Z,75.23
2018-11-05T22:49:01.046Z,75.43
2018-11-05T22:51:29.518Z,76.33
2018-11-05T22:53:57.811Z,71.40
2018-11-05T22:56:26.082Z,69.23
2018-11-05T22:58:54.367Z,72.57
2018-11-05T23:01:28.013Z,76.23
2018-11-05T23:03:56.322Z,77.87
2018-11-05T23:06:24.596Z,72.87
2018-11-05T23:08:52.908Z,73.97
2018-11-05T23:11:21.336Z,74.10
2018-11-05T23:13:49.628Z,79.70
2018-11-05T23:16:17.944Z,77.50
2018-11-05T23:18:46.264Z,79.80
2018-11-05T23:21:14.725Z,73.00
2018-11-05T23:23:43.020Z,77.27
2018-11-05T23:26:11.414Z,77.60
2018-11-05T23:28:39.683Z,76.27
2018-11-05T23:31:08.019Z,80.13
2018-11-05T23:33:36.308Z,78.50
2018-11-05T23:36:04.691Z,78.77
2018-11-05T23:38:33.009Z,81.70
2018-11-05T23:41:01.384Z,79.97
2018-11-05T23:43:29.553Z,79.20
2018-11-05T23:45:57.860Z,80.93
2018-11-05T23:48:26.147Z,81.30
2018-11-05T23:50:54.487Z,78.97
2018-11-05T23:53:22.828Z,69.20
2018-11-05T23:55:54.500Z,72.90
2018-11-05T23:58:22.817Z,73.77
